createdAt,value
2022-11-28T05:59:31.242Z,25.20
2022-11-28T06:02:03.473Z,28.92
2022-11-28T06:04:36.396Z,30.70
2022-11-28T06:07:08.914Z,31.25
2022-11-28T06:09:41.342Z,29.90
2022-11-28T06:12:14.041Z,30.53
2022-11-28T06:14:46.094Z,25.02
2022-11-28T06:17:18.133Z,28.55
2022-11-28T06:19:50.183Z,26.08
2022-11-28T06:22:22.408Z,25.85
2022-11-28T06:24:54.690Z,22.95
2022-11-28T06:27:26.826Z,23.70
2022-11-28T06:29:58.854Z,23.20
2022-11-28T06:32:31.209Z,23.33
2022-11-28T06:35:03.273Z,21.65
2022-11-28T06:37:35.334Z,24.40
2022-11-28T06:40:08.011Z,23.33
2022-11-28T06:42:40.074Z,22.73
2022-11-28T06:45:12.786Z,21.75
2022-11-28T06:47:44.905Z,25.13
2022-11-28T06:50:17.086Z,23.02
2022-11-28T06:52:50.131Z,24.75
2022-11-28T06:55:22.208Z,25.35
2022-11-28T06:57:54.261Z,28.02
2022-11-28T07:00:26.274Z,25.08
2022-11-28T14:27:02.129Z,9.75
2022-11-28T14:29:40.316Z,9.45
2022-11-28T14:32:30.544Z,9.45
2022-11-28T14:35:12.018Z,9.00
2022-11-28T14:37:54.285Z,9.35
2022-11-28T14:40:55.085Z,9.48
2022-11-28T14:43:35.108Z,10.15
2022-11-28T14:46:16.845Z,9.50
2022-11-28T14:48:58.520Z,10.23
2022-11-28T14:51:48.846Z,10.13
2022-11-28T14:54:36.396Z,9.93
2022-11-28T14:57:23.970Z,10.93
2022-11-28T15:00:00.103Z,9.95
2022-11-28T15:02:53.186Z,10.48
2022-11-28T15:05:39.104Z,10.23
2022-11-28T15:08:30.327Z,9.77
2022-11-28T15:11:16.643Z,10.35
2022-11-28T15:14:13.444Z,10.63
2022-11-28T15:16:50.502Z,11.48
2022-11-28T15:19:46.782Z,11.75
2022-11-28T15:22:33.029Z,14.00
2022-11-28T15:25:19.204Z,15.45
2022-11-28T15:27:51.774Z,16.45
2022-11-28T15:30:26.927Z,15.85
2022-11-28T15:33:00.432Z,17.10
2022-11-28T15:35:32.979Z,16.95
2022-11-28T15:38:05.212Z,16.75
2022-11-28T15:40:38.039Z,16.40
2022-11-28T15:43:13.310Z,16.35
2022-11-28T15:45:59.770Z,16.98
2022-11-28T15:48:39.734Z,14.80
2022-11-28T15:51:30.022Z,16.65
2022-11-28T15:54:13.394Z,16.13
2022-11-28T15:59:29.533Z,11.55
2022-11-28T16:02:16.057Z,11.55
2022-11-28T16:04:54.996Z,11.02
2022-11-28T16:07:27.187Z,11.13
2022-11-28T16:10:06.666Z,12.68
2022-11-28T16:12:41.764Z,18.27
2022-11-28T16:15:22.500Z,18.38
2022-11-28T16:17:55.983Z,18.65
2022-11-28T16:38:23.163Z,13.77
2022-11-28T16:41:01.709Z,14.45
2022-11-28T16:43:38.283Z,13.38
2022-11-28T16:46:23.967Z,13.68
2022-11-28T16:48:58.891Z,15.48
2022-11-28T16:51:39.259Z,15.25
2022-11-28T16:54:23.676Z,15.48
2022-11-28T16:57:09.900Z,17.80
2022-11-28T16:59:43.696Z,18.02
2022-11-28T17:02:29.354Z,17.40
2022-11-28T17:05:02.013Z,18.35
2022-11-28T17:07:34.099Z,17.95
2022-11-28T17:10:06.715Z,17.75
2022-11-28T17:12:39.274Z,16.52
2022-11-28T17:15:17.057Z,16.52
2022-11-28T17:17:49.124Z,29.58
2022-11-28T17:20:21.538Z,22.40
2022-11-28T17:22:56.487Z,18.48
2022-11-28T17:25:28.493Z,19.63
2022-11-28T17:28:00.529Z,35.72
2022-11-28T17:30:32.813Z,24.67
2022-11-28T17:33:05.471Z,19.00
2022-11-28T17:35:42.233Z,19.40
2022-11-28T17:38:14.288Z,17.70
2022-11-28T17:40:46.922Z,20.08
2022-11-28T17:43:21.635Z,17.25
2022-11-28T17:45:53.730Z,17.15
2022-11-28T17:48:26.092Z,18.25
2022-11-28T17:50:58.176Z,19.60
2022-11-28T17:53:30.581Z,19.25
2022-11-28T17:56:02.899Z,26.88
2022-11-28T17:58:34.985Z,20.95
2022-11-28T18:01:11.578Z,18.25
2022-11-28T18:03:43.687Z,18.67
2022-11-28T18:06:17.662Z,17.48
2022-11-28T18:08:50.857Z,18.67
2022-11-28T18:11:23.822Z,21.33
2022-11-28T18:13:57.786Z,21.60
2022-11-28T18:19:03.710Z,30.02
2022-11-28T18:21:36.087Z,35.00
2022-11-28T18:24:08.257Z,28.35
2022-11-28T18:26:40.534Z,25.40
2022-11-28T18:29:13.313Z,24.63
2022-11-28T18:31:45.366Z,24.40
2022-11-28T18:34:23.107Z,28.92
2022-11-28T18:40:42.348Z,25.27
2022-11-28T18:43:56.058Z,20.55
2022-11-28T18:46:58.335Z,23.08
2022-11-28T18:50:09.456Z,20.88
2022-11-28T18:52:41.441Z,20.58
2022-11-28T18:55:14.172Z,24.70
2022-11-28T18:57:46.906Z,29.85
2022-11-28T19:00:19.815Z,26.20
